createdAt,value
2018-03-26T00:00:32.072Z,97168.97
2018-03-26T00:03:00.352Z,97181.11
2018-03-26T00:05:28.669Z,97165.36
2018-03-26T00:07:57.084Z,97162.31
2018-03-26T00:10:25.447Z,97166.63
2018-03-26T00:12:54.338Z,97161.53
2018-03-26T00:15:22.628Z,97165.48
2018-03-26T00:17:50.891Z,97155.71
2018-03-26T00:20:19.176Z,97154.02
2018-03-26T00:22:47.467Z,97160.73
2018-03-26T00:25:15.776Z,97160.50
2018-03-26T00:27:44.107Z,97167.75
2018-03-26T00:30:12.385Z,97174.05
2018-03-26T00:32:40.653Z,97177.47
2018-03-26T00:35:08.928Z,97177.75
2018-03-26T00:37:37.185Z,97175.13
2018-03-26T00:40:05.463Z,97176.32
2018-03-26T00:42:35.086Z,97183.21
2018-03-26T00:45:04.121Z,97179.39
2018-03-26T00:47:32.392Z,97189.28
2018-03-26T00:50:01.448Z,97174.92
2018-03-26T00:52:29.791Z,97182.16
2018-03-26T00:54:58.149Z,97186.25
2018-03-26T00:57:26.508Z,97193.36
2018-03-26T00:59:54.836Z,97191.34
2018-03-26T01:02:23.126Z,97189.63
2018-03-26T01:04:51.386Z,97188.08
2018-03-26T01:07:19.660Z,97205.34
2018-03-26T01:09:47.911Z,97202.70
2018-03-26T01:12:16.949Z,97196.66
2018-03-26T01:14:45.318Z,97197.25
2018-03-26T01:17:13.610Z,97199.30
2018-03-26T01:19:41.878Z,97198.95
2018-03-26T01:22:11.667Z,97200.20
2018-03-26T01:24:39.941Z,97191.64
2018-03-26T01:27:08.207Z,97196.68
2018-03-26T01:29:36.468Z,97195.79
2018-03-26T01:32:05.513Z,97187.44
2018-03-26T01:34:33.765Z,97190.25
2018-03-26T01:37:02.829Z,97190.98
2018-03-26T01:39:31.097Z,97188.85
2018-03-26T01:41:59.457Z,97190.19
2018-03-26T01:44:27.780Z,97197.27
2018-03-26T01:46:56.570Z,97192.95
2018-03-26T01:49:24.987Z,97193.03
2018-03-26T01:51:53.268Z,97200.38
2018-03-26T01:54:21.560Z,97201.58
2018-03-26T01:56:49.836Z,97215.00
2018-03-26T01:59:18.133Z,97215.11
2018-03-26T02:01:46.414Z,97210.06
2018-03-26T02:04:14.769Z,97210.67
2018-03-26T02:06:43.848Z,97214.69
2018-03-26T02:09:12.178Z,97217.51
2018-03-26T02:11:41.277Z,97221.05
2018-03-26T02:14:10.298Z,97217.95
2018-03-26T02:16:39.342Z,97216.41
2018-03-26T02:19:07.618Z,97225.42
2018-03-26T02:21:35.879Z,97215.95
2018-03-26T02:24:04.902Z,97214.81
2018-03-26T02:26:33.922Z,97211.09
2018-03-26T02:29:02.213Z,97210.59
2018-03-26T02:31:30.468Z,97216.66
2018-03-26T02:33:59.581Z,97215.73
2018-03-26T02:36:28.666Z,97213.64
2018-03-26T02:38:57.038Z,97219.24
2018-03-26T02:41:25.405Z,97215.28
2018-03-26T02:43:54.377Z,97211.75
2018-03-26T02:46:22.662Z,97221.30
2018-03-26T02:48:51.696Z,97214.52
2018-03-26T02:51:19.956Z,97219.42
2018-03-26T02:53:49.002Z,97214.87
2018-03-26T02:56:17.355Z,97219.73
2018-03-26T02:58:46.422Z,97224.77
2018-03-26T03:01:14.719Z,97218.94
2018-03-26T03:03:43.058Z,97218.26
2018-03-26T03:06:11.359Z,97220.62
2018-03-26T03:08:39.640Z,97221.45
2018-03-26T03:11:07.918Z,97223.07
2018-03-26T03:13:36.952Z,97220.77
2018-03-26T03:16:05.217Z,97227.61
2018-03-26T03:18:34.451Z,97228.73
2018-03-26T03:21:02.696Z,97233.94
2018-03-26T03:23:30.981Z,97225.79
2018-03-26T03:26:00.080Z,97230.04
2018-03-26T03:28:28.437Z,97232.95
2018-03-26T03:30:56.810Z,97238.88
2018-03-26T03:33:25.176Z,97237.20
2018-03-26T03:35:53.443Z,97249.05
2018-03-26T03:38:23.873Z,97251.66
2018-03-26T03:40:52.140Z,97249.02
2018-03-26T03:43:20.415Z,97256.11
2018-03-26T03:45:48.671Z,97252.31
2018-03-26T03:48:17.704Z,97253.59
2018-03-26T03:50:45.968Z,97260.45
2018-03-26T03:53:15.036Z,97261.23
2018-03-26T03:55:43.347Z,97263.35
2018-03-26T03:58:12.759Z,97261.95
2018-03-26T04:00:41.032Z,97265.53
2018-03-26T04:03:09.294Z,97260.58
2018-03-26T04:05:37.608Z,97265.55
2018-03-26T04:08:05.856Z,97264.84
2018-03-26T04:10:34.154Z,97266.72
2018-03-26T04:13:02.407Z,97263.97
2018-03-26T04:15:30.681Z,97266.73
2018-03-26T04:17:59.011Z,97260.06
2018-03-26T04:20:27.400Z,97266.91
2018-03-26T04:22:55.853Z,97282.35
2018-03-26T04:25:24.280Z,97283.00
2018-03-26T04:27:53.306Z,97278.91
2018-03-26T04:30:21.640Z,97285.04
2018-03-26T04:32:49.912Z,97294.22
2018-03-26T04:35:18.220Z,97301.92
2018-03-26T04:37:46.473Z,97309.17
2018-03-26T04:40:14.770Z,97303.69
2018-03-26T04:42:43.071Z,97305.77
2018-03-26T04:45:11.348Z,97306.33
2018-03-26T04:47:39.621Z,97314.19
2018-03-26T04:50:07.903Z,97315.61
2018-03-26T04:52:36.170Z,97314.80
2018-03-26T04:55:05.205Z,97321.33
2018-03-26T04:57:33.468Z,97315.82
2018-03-26T05:00:02.511Z,97320.73
2018-03-26T05:02:30.893Z,97316.13
2018-03-26T05:04:59.182Z,97315.47
2018-03-26T05:07:27.529Z,97309.34
2018-03-26T05:09:56.714Z,97320.10
2018-03-26T05:12:25.034Z,97319.79
2018-03-26T05:14:53.296Z,97325.11
2018-03-26T05:17:21.582Z,97334.09
2018-03-26T05:19:49.851Z,97325.02
2018-03-26T05:22:18.209Z,97312.45
2018-03-26T05:24:47.224Z,97323.36
2018-03-26T05:27:16.288Z,97327.25
2018-03-26T05:29:44.560Z,97327.77
2018-03-26T05:32:12.909Z,97330.34
2018-03-26T05:34:41.183Z,97329.19
2018-03-26T05:37:09.463Z,97327.64
2018-03-26T05:39:37.725Z,97336.99
2018-03-26T05:42:06.767Z,97338.45
2018-03-26T05:44:35.794Z,97337.99
2018-03-26T05:47:04.069Z,97338.59
2018-03-26T05:49:32.330Z,97348.29
2018-03-26T05:52:00.669Z,97347.32
2018-03-26T05:54:29.767Z,97350.88
2018-03-26T05:56:58.859Z,97345.80
2018-03-26T05:59:27.986Z,97359.55
2018-03-26T06:01:56.342Z,97359.75
2018-03-26T06:04:24.697Z,97359.78
2018-03-26T06:06:52.994Z,97366.79
2018-03-26T06:09:21.308Z,97371.16
2018-03-26T06:11:49.584Z,97367.70
2018-03-26T06:14:17.841Z,97381.34
2018-03-26T06:17:03.788Z,97384.95
2018-03-26T06:19:32.049Z,97375.73
2018-03-26T06:22:00.468Z,97378.94
2018-03-26T06:24:28.791Z,97382.86
2018-03-26T06:26:57.973Z,97391.59
2018-03-26T06:29:27.303Z,97389.47
2018-03-26T06:31:55.683Z,97390.86
2018-03-26T06:34:24.804Z,97383.83
2018-03-26T06:40:03.604Z,97393.30
2018-03-26T06:42:32.721Z,97398.12
2018-03-26T06:45:01.221Z,97399.15
2018-03-26T06:47:29.796Z,97406.56
2018-03-26T06:49:58.315Z,97412.49
2018-03-26T06:52:26.754Z,97420.84
2018-03-26T06:54:55.954Z,97425.27
2018-03-26T06:57:24.274Z,97421.60
2018-03-26T06:59:53.334Z,97423.92
2018-03-26T07:02:21.739Z,97426.78
2018-03-26T07:04:49.992Z,97432.58
2018-03-26T07:07:18.285Z,97440.36
2018-03-26T07:09:46.608Z,97441.53
2018-03-26T07:12:15.682Z,97439.94
2018-03-26T07:14:44.002Z,97441.91
2018-03-26T07:17:12.272Z,97443.58
2018-03-26T07:19:41.325Z,97446.67
2018-03-26T07:22:09.573Z,97447.24
2018-03-26T07:24:37.954Z,97448.41
2018-03-26T07:27:06.202Z,97450.99
2018-03-26T07:29:34.536Z,97449.28
2018-03-26T07:32:02.827Z,97445.55
2018-03-26T07:34:31.127Z,97459.30
2018-03-26T07:36:59.429Z,97459.83
2018-03-26T07:39:27.782Z,97465.33
2018-03-26T07:41:56.081Z,97468.91
2018-03-26T07:44:24.432Z,97464.93
2018-03-26T07:46:53.499Z,97459.94
2018-03-26T07:49:22.600Z,97467.02
2018-03-26T07:51:50.857Z,97467.83
2018-03-26T07:54:19.908Z,97467.83
2018-03-26T07:56:48.811Z,97473.45
2018-03-26T07:59:17.076Z,97477.98
2018-03-26T08:01:46.137Z,97479.57
2018-03-26T08:04:14.412Z,97487.89
2018-03-26T08:06:42.663Z,97498.58
2018-03-26T08:09:10.932Z,97493.44
2018-03-26T08:11:39.970Z,97500.22
2018-03-26T08:14:08.247Z,97498.42
2018-03-26T08:16:37.266Z,97500.30
2018-03-26T08:19:05.533Z,97498.16
2018-03-26T08:21:34.555Z,97504.92
2018-03-26T08:24:02.896Z,97506.34
2018-03-26T08:26:31.196Z,97503.56
2018-03-26T08:28:59.535Z,97514.78
2018-03-26T08:31:27.932Z,97516.11
2018-03-26T08:33:56.310Z,97523.81
2018-03-26T08:36:24.784Z,97519.39
2018-03-26T08:38:53.008Z,97526.46
2018-03-26T08:41:21.383Z,97525.56
2018-03-26T08:43:49.639Z,97527.24
2018-03-26T08:46:18.694Z,97530.78
2018-03-26T08:48:47.026Z,97531.42
2018-03-26T08:51:15.312Z,97526.91
2018-03-26T08:53:45.168Z,97527.57
2018-03-26T08:56:13.501Z,97527.92
2018-03-26T08:58:41.764Z,97535.53
2018-03-26T09:01:10.055Z,97537.14
2018-03-26T09:03:38.338Z,97534.83
2018-03-26T09:06:06.607Z,97540.55
2018-03-26T09:08:34.880Z,97538.08
2018-03-26T09:11:03.163Z,97545.23
2018-03-26T09:13:31.432Z,97542.62
2018-03-26T09:15:59.718Z,97541.91
2018-03-26T09:18:28.216Z,97545.56
2018-03-26T09:20:56.758Z,97546.03
2018-03-26T09:23:25.074Z,97548.48
2018-03-26T09:25:53.459Z,97550.95
2018-03-26T09:28:21.724Z,97550.61
2018-03-26T09:30:51.524Z,97558.17
2018-03-26T09:33:19.862Z,97552.48
2018-03-26T09:35:48.170Z,97551.58
2018-03-26T09:38:16.453Z,97551.34
2018-03-26T09:40:45.504Z,97548.56
2018-03-26T09:43:15.417Z,97551.90
2018-03-26T09:45:45.224Z,97556.34
2018-03-26T09:48:13.649Z,97560.72
2018-03-26T09:50:41.976Z,97565.31
2018-03-26T09:53:10.282Z,97568.00
2018-03-26T09:55:38.594Z,97579.55
2018-03-26T09:58:06.869Z,97577.42
2018-03-26T10:00:40.596Z,97576.25
2018-03-26T10:03:08.956Z,97576.91
2018-03-26T10:05:37.234Z,97571.97
2018-03-26T10:08:06.364Z,97578.00
2018-03-26T10:10:34.678Z,97579.14
2018-03-26T10:13:02.931Z,97578.89
2018-03-26T10:15:31.195Z,97579.52
2018-03-26T10:17:59.501Z,97580.35
2018-03-26T10:20:28.727Z,97580.78
2018-03-26T10:22:57.252Z,97590.13
2018-03-26T10:25:26.408Z,97580.65
2018-03-26T10:27:54.870Z,97593.09
2018-03-26T10:30:23.233Z,97592.47
2018-03-26T10:32:51.627Z,97592.84
2018-03-26T10:35:19.999Z,97594.72
2018-03-26T10:37:48.400Z,97592.45
2018-03-26T10:40:16.701Z,97593.03
2018-03-26T10:42:45.045Z,97589.80
2018-03-26T10:45:14.244Z,97595.25
2018-03-26T10:47:42.581Z,97598.61
2018-03-26T10:50:10.969Z,97602.65
2018-03-26T10:52:39.245Z,97598.34
2018-03-26T10:55:07.549Z,97604.20
2018-03-26T10:57:35.918Z,97604.38
2018-03-26T11:00:04.963Z,97601.73
2018-03-26T11:02:33.326Z,97596.30
2018-03-26T11:05:01.629Z,97595.00
2018-03-26T11:07:29.971Z,97597.36
2018-03-26T11:09:58.308Z,97608.23
2018-03-26T11:12:27.405Z,97613.85
2018-03-26T11:14:56.089Z,97608.00
2018-03-26T11:17:25.323Z,97599.63
2018-03-26T11:19:53.668Z,97607.41
2018-03-26T11:22:21.963Z,97608.16
2018-03-26T11:24:50.296Z,97609.14
2018-03-26T11:27:18.577Z,97608.21
2018-03-26T11:29:47.691Z,97605.20
2018-03-26T11:32:16.009Z,97603.54
2018-03-26T11:34:44.342Z,97600.34
2018-03-26T11:37:12.696Z,97600.39
2018-03-26T11:39:40.959Z,97597.50
2018-03-26T11:42:09.246Z,97600.27
2018-03-26T11:44:37.508Z,97626.44
2018-03-26T11:47:06.523Z,97602.20
2018-03-26T11:49:34.826Z,97596.52
2018-03-26T11:52:03.099Z,97606.33
2018-03-26T11:54:32.130Z,97604.64
2018-03-26T11:57:00.406Z,97609.12
2018-03-26T11:59:29.509Z,97611.84
2018-03-26T12:01:57.828Z,97609.76
2018-03-26T12:04:26.220Z,97601.09
2018-03-26T12:06:54.658Z,97604.68
2018-03-26T12:09:23.800Z,97607.87
2018-03-26T12:11:52.089Z,97609.73
2018-03-26T12:14:20.372Z,97614.30
2018-03-26T12:16:48.862Z,97607.70
2018-03-26T12:19:17.158Z,97606.34
2018-03-26T12:21:45.430Z,97605.64
2018-03-26T12:24:32.016Z,97608.22
2018-03-26T12:27:00.390Z,97605.19
2018-03-26T12:29:46.478Z,97602.17
2018-03-26T12:32:14.760Z,97608.92
2018-03-26T12:35:00.775Z,97608.04
2018-03-26T12:37:29.996Z,97609.00
2018-03-26T12:39:59.088Z,97595.55
2018-03-26T12:42:27.396Z,97596.87
2018-03-26T12:45:13.476Z,97612.31
2018-03-26T12:47:42.517Z,97602.13
2018-03-26T12:50:10.809Z,97605.43
2018-03-26T12:52:53.445Z,97608.50
2018-03-26T12:55:21.732Z,97605.61
2018-03-26T12:58:03.124Z,97614.95
2018-03-26T13:00:31.406Z,97616.19
2018-03-26T13:02:59.808Z,97609.77
2018-03-26T13:05:28.130Z,97613.11
2018-03-26T13:07:57.465Z,97620.81
2018-03-26T13:10:25.860Z,97619.61
2018-03-26T13:12:54.263Z,97621.03
2018-03-26T13:15:22.551Z,97624.91
2018-03-26T13:17:50.819Z,97627.42
2018-03-26T13:20:19.904Z,97625.16
2018-03-26T13:22:48.210Z,97618.94
2018-03-26T13:25:17.839Z,97628.09
2018-03-26T13:27:47.093Z,97630.79
2018-03-26T13:30:15.464Z,97628.26
2018-03-26T13:32:43.753Z,97627.38
2018-03-26T13:35:13.163Z,97632.30
2018-03-26T13:37:42.196Z,97630.61
2018-03-26T13:40:10.480Z,97639.91
2018-03-26T13:42:38.750Z,97638.03
2018-03-26T13:45:08.387Z,97640.49
2018-03-26T13:47:36.668Z,97644.23
2018-03-26T13:50:05.005Z,97654.47
2018-03-26T13:52:33.985Z,97657.95
2018-03-26T13:55:02.264Z,97657.92
2018-03-26T13:57:30.659Z,97661.61
2018-03-26T13:59:59.064Z,97661.71
2018-03-26T14:02:27.487Z,97659.85
2018-03-26T14:04:56.032Z,97672.83
2018-03-26T14:07:24.711Z,97670.59
2018-03-26T14:10:10.725Z,97670.70
2018-03-26T14:16:04.283Z,97673.59
2018-03-26T14:18:32.528Z,97675.81
2018-03-26T14:21:01.646Z,97677.81
2018-03-26T14:23:29.975Z,97673.22
2018-03-26T14:25:58.517Z,97682.73
2018-03-26T14:28:26.865Z,97675.72
2018-03-26T14:30:55.305Z,97679.97
2018-03-26T14:33:23.606Z,97671.52
2018-03-26T14:35:51.888Z,97674.79
2018-03-26T14:38:20.948Z,97672.59
2018-03-26T14:40:49.224Z,97671.17
2018-03-26T14:43:17.484Z,97669.80
2018-03-26T14:45:45.751Z,97674.97
2018-03-26T14:48:14.795Z,97673.91
2018-03-26T14:50:43.072Z,97674.71
2018-03-26T14:53:11.382Z,97670.28
2018-03-26T14:55:39.641Z,97666.67
2018-03-26T14:58:09.438Z,97675.50
2018-03-26T15:00:38.475Z,97673.31
2018-03-26T15:03:07.575Z,97678.03
2018-03-26T15:05:36.605Z,97681.94
2018-03-26T15:08:04.894Z,97681.90
2018-03-26T15:10:33.158Z,97676.46
2018-03-26T15:13:01.585Z,97677.56
2018-03-26T15:15:29.852Z,97679.23
2018-03-26T15:17:58.180Z,97678.86
2018-03-26T15:20:26.574Z,97681.38
2018-03-26T15:22:55.782Z,97684.73
2018-03-26T15:25:24.871Z,97681.88
2018-03-26T15:27:53.325Z,97693.39
2018-03-26T15:30:22.354Z,97689.98
2018-03-26T15:32:50.643Z,97688.33
2018-03-26T15:35:18.908Z,97693.19
2018-03-26T15:37:47.970Z,97689.75
2018-03-26T15:40:16.244Z,97689.89
2018-03-26T15:42:44.567Z,97693.80
2018-03-26T15:45:12.830Z,97701.33
2018-03-26T15:47:41.110Z,97697.13
2018-03-26T15:50:09.370Z,97697.64
2018-03-26T15:52:37.660Z,97698.22
2018-03-26T15:55:06.676Z,97696.39
2018-03-26T15:57:35.708Z,97695.95
2018-03-26T16:00:03.966Z,97697.49
2018-03-26T16:05:39.187Z,97698.16
2018-03-26T16:08:07.488Z,97689.98
2018-03-26T16:10:35.748Z,97701.44
2018-03-26T16:13:04.938Z,97699.55
2018-03-26T16:15:33.964Z,97718.30
2018-03-26T16:18:03.007Z,97700.92
2018-03-26T16:20:31.269Z,97705.33
2018-03-26T16:22:59.584Z,97701.75
2018-03-26T16:25:27.937Z,97710.61
2018-03-26T16:27:56.295Z,97708.42
2018-03-26T16:30:24.572Z,97712.52
2018-03-26T16:32:52.850Z,97719.73
2018-03-26T16:35:21.876Z,97723.48
2018-03-26T16:37:50.164Z,97719.17
2018-03-26T16:40:18.415Z,97720.20
2018-03-26T16:42:47.435Z,97717.56
2018-03-26T16:45:15.776Z,97723.06
2018-03-26T16:47:44.086Z,97720.70
2018-03-26T16:50:12.355Z,97724.78
2018-03-26T16:52:41.386Z,97722.66
2018-03-26T16:55:09.658Z,97729.49
2018-03-26T16:57:37.914Z,97725.71
2018-03-26T17:00:06.189Z,97726.19
2018-03-26T17:02:35.210Z,97719.27
2018-03-26T17:05:03.523Z,97732.41
2018-03-26T17:07:31.776Z,97731.31
2018-03-26T17:10:00.102Z,97729.40
2018-03-26T17:12:29.115Z,97728.15
2018-03-26T17:14:58.205Z,97733.89
2018-03-26T17:17:26.534Z,97739.59
2018-03-26T17:19:54.855Z,97739.13
2018-03-26T17:22:23.198Z,97732.54
2018-03-26T17:24:52.227Z,97739.50
2018-03-26T17:27:20.508Z,97750.29
2018-03-26T17:29:48.783Z,97740.59
2018-03-26T17:32:17.824Z,97747.45
2018-03-26T17:34:46.153Z,97750.91
2018-03-26T17:37:14.442Z,97747.58
2018-03-26T17:39:42.735Z,97749.19
2018-03-26T17:42:11.804Z,97750.72
2018-03-26T17:44:40.813Z,97750.16
2018-03-26T17:47:09.087Z,97762.99
2018-03-26T17:49:39.017Z,97758.52
2018-03-26T17:52:07.272Z,97757.05
2018-03-26T17:54:37.054Z,97759.99
2018-03-26T17:57:05.305Z,97760.95
2018-03-26T17:59:33.587Z,97765.63
2018-03-26T18:02:01.863Z,97770.41
2018-03-26T18:04:30.889Z,97767.20
2018-03-26T18:06:59.179Z,97759.89
2018-03-26T18:09:28.241Z,97765.61
2018-03-26T18:11:56.649Z,97767.91
2018-03-26T18:14:25.991Z,97776.91
2018-03-26T18:16:54.343Z,97774.34
2018-03-26T18:19:22.596Z,97795.25
2018-03-26T18:21:50.876Z,97784.20
2018-03-26T18:24:19.144Z,97780.10
2018-03-26T18:26:47.424Z,97788.08
2018-03-26T18:29:16.442Z,97788.23
2018-03-26T18:31:44.758Z,97786.75
2018-03-26T18:34:13.013Z,97784.55
2018-03-26T18:36:42.074Z,97785.28
2018-03-26T18:39:10.334Z,97791.34
2018-03-26T18:41:38.654Z,97795.78
2018-03-26T18:44:06.930Z,97795.03
2018-03-26T18:46:35.208Z,97790.47
2018-03-26T18:49:03.468Z,97791.37
2018-03-26T18:51:31.744Z,97793.11
2018-03-26T18:54:00.035Z,97793.75
2018-03-26T18:56:28.322Z,97793.08
2018-03-26T18:58:57.390Z,97799.14
2018-03-26T19:01:25.973Z,97815.67
2018-03-26T19:03:54.266Z,97796.23
2018-03-26T19:06:22.545Z,97820.14
2018-03-26T19:08:51.975Z,97804.28
2018-03-26T19:11:21.024Z,97810.59
2018-03-26T19:13:49.354Z,97807.95
2018-03-26T19:16:17.741Z,97808.02
2018-03-26T19:18:46.064Z,97815.63
2018-03-26T19:21:14.377Z,97820.47
2018-03-26T19:23:42.671Z,97809.86
2018-03-26T19:26:10.932Z,97797.91
2018-03-26T19:28:39.228Z,97810.22
2018-03-26T19:31:07.532Z,97818.88
2018-03-26T19:33:35.825Z,97821.16
2018-03-26T19:36:04.089Z,97818.25
2018-03-26T19:38:32.378Z,97820.09
2018-03-26T19:41:01.460Z,97825.23
2018-03-26T19:43:29.776Z,97825.25
2018-03-26T19:45:58.184Z,97827.20
2018-03-26T19:48:26.734Z,97825.98
2018-03-26T19:50:55.042Z,97823.47
2018-03-26T19:53:23.350Z,97836.30
2018-03-26T19:55:51.628Z,97838.02
2018-03-26T19:58:20.039Z,97832.05
2018-03-26T20:00:48.289Z,97837.44
2018-03-26T20:03:17.535Z,97839.27
2018-03-26T20:05:45.836Z,97838.13
2018-03-26T20:08:14.130Z,97837.16
2018-03-26T20:10:42.507Z,97835.31
2018-03-26T20:13:10.793Z,97839.02
2018-03-26T20:15:39.061Z,97844.41
2018-03-26T20:18:07.350Z,97842.31
2018-03-26T20:20:35.620Z,97841.78
2018-03-26T20:23:03.983Z,97842.61
2018-03-26T20:25:32.194Z,97845.95
2018-03-26T20:28:01.240Z,97851.48
2018-03-26T20:30:29.520Z,97855.42
2018-03-26T20:32:57.862Z,97852.48
2018-03-26T20:35:26.939Z,97857.26
2018-03-26T20:37:55.261Z,97851.50
2018-03-26T20:40:24.328Z,97852.64
2018-03-26T20:42:52.610Z,97850.46
2018-03-26T20:45:20.896Z,97858.89
2018-03-26T20:47:49.171Z,97861.59
2018-03-26T20:50:17.559Z,97857.70
2018-03-26T20:52:45.848Z,97860.50
2018-03-26T20:55:14.162Z,97863.53
2018-03-26T20:57:42.423Z,97859.75
2018-03-26T21:00:10.721Z,97863.59
2018-03-26T21:02:38.988Z,97861.91
2018-03-26T21:05:07.285Z,97865.19
2018-03-26T21:07:35.581Z,97867.14
2018-03-26T21:10:03.899Z,97865.34
2018-03-26T21:12:32.172Z,97863.14
2018-03-26T21:15:00.446Z,97863.23
2018-03-26T21:17:28.771Z,97856.63
2018-03-26T21:19:57.097Z,97856.89
2018-03-26T21:22:26.507Z,97857.27
2018-03-26T21:24:55.579Z,97868.98
2018-03-26T21:27:23.928Z,97861.23
2018-03-26T21:29:52.244Z,97857.91
2018-03-26T21:32:20.503Z,97856.53
2018-03-26T21:34:49.608Z,97852.26
2018-03-26T21:37:18.645Z,97864.91
2018-03-26T21:39:46.948Z,97864.12
2018-03-26T21:42:15.978Z,97860.09
2018-03-26T21:44:44.298Z,97867.33
2018-03-26T21:47:14.312Z,97858.39
2018-03-26T21:49:43.408Z,97868.06
2018-03-26T21:52:11.728Z,97859.63
2018-03-26T21:54:40.052Z,97860.49
2018-03-26T21:57:08.344Z,97864.76
2018-03-26T21:59:36.637Z,97865.29
2018-03-26T22:02:04.893Z,97864.84
2018-03-26T22:04:33.975Z,97869.14
2018-03-26T22:07:02.236Z,97868.16
2018-03-26T22:09:30.533Z,97863.81
2018-03-26T22:11:58.804Z,97862.19
2018-03-26T22:14:27.145Z,97864.17
2018-03-26T22:16:56.281Z,97855.05
2018-03-26T22:19:25.396Z,97854.55
2018-03-26T22:21:53.685Z,97851.16
2018-03-26T22:24:21.945Z,97846.80
2018-03-26T22:26:50.985Z,97841.81
2018-03-26T22:29:19.277Z,97841.95
2018-03-26T22:31:47.600Z,97841.77
2018-03-26T22:34:15.884Z,97847.67
2018-03-26T22:36:44.188Z,97853.14
2018-03-26T22:39:13.974Z,97847.59
2018-03-26T22:41:42.277Z,97843.52
2018-03-26T22:44:11.300Z,97846.21
2018-03-26T22:46:39.573Z,97840.66
2018-03-26T22:49:07.881Z,97848.45
2018-03-26T22:51:36.148Z,97840.45
2018-03-26T22:54:04.508Z,97845.73
2018-03-26T22:56:32.964Z,97844.42
2018-03-26T22:59:01.226Z,97839.68
2018-03-26T23:01:29.526Z,97841.67
2018-03-26T23:03:57.812Z,97842.45
2018-03-26T23:06:26.182Z,97838.70
2018-03-26T23:08:54.464Z,97832.62
2018-03-26T23:11:22.744Z,97828.61
2018-03-26T23:13:51.002Z,97834.69
2018-03-26T23:16:20.036Z,97841.06
2018-03-26T23:18:48.311Z,97844.83
2018-03-26T23:21:17.348Z,97842.72
2018-03-26T23:23:45.596Z,97842.12
2018-03-26T23:26:14.649Z,97835.23
2018-03-26T23:28:42.929Z,97831.06
2018-03-26T23:31:11.186Z,97824.88
2018-03-26T23:33:40.240Z,97830.38
2018-03-26T23:36:08.504Z,97826.31
2018-03-26T23:38:36.775Z,97829.95
2018-03-26T23:41:05.789Z,97833.30
2018-03-26T23:43:34.081Z,97825.27
2018-03-26T23:46:03.684Z,97826.59
2018-03-26T23:48:32.731Z,97823.13
2018-03-26T23:51:00.993Z,97818.78
2018-03-26T23:53:30.053Z,97818.59
2018-03-26T23:55:58.333Z,97814.45
2018-03-26T23:58:26.614Z,97812.20
